createdAt,value
2022-09-25T00:02:16.061Z,4.10
2022-09-25T00:04:48.895Z,4.27
2022-09-25T00:07:20.905Z,5.20
2022-09-25T00:09:49.147Z,4.30
2022-09-25T00:12:22.587Z,4.67
2022-09-25T00:14:57.745Z,4.27
2022-09-25T00:17:25.987Z,5.20
2022-09-25T00:19:58.497Z,4.10
2022-09-25T00:22:31.067Z,5.10
2022-09-25T00:25:03.685Z,5.13
2022-09-25T00:27:37.838Z,4.97
2022-09-25T00:30:06.541Z,3.83
2022-09-25T00:32:38.002Z,5.00
2022-09-25T00:35:12.134Z,4.93
2022-09-25T00:37:43.578Z,4.37
2022-09-25T00:40:11.995Z,3.70
2022-09-25T00:42:41.495Z,4.50
2022-09-25T00:45:18.090Z,4.80
2022-09-25T00:47:59.690Z,3.93
2022-09-25T00:50:39.528Z,3.70
2022-09-25T00:53:14.314Z,4.90
2022-09-25T00:55:46.954Z,4.30
2022-09-25T00:58:20.325Z,4.63
2022-09-25T01:00:53.907Z,5.90
2022-09-25T01:03:25.951Z,5.70
2022-09-25T01:06:00.268Z,3.70
2022-09-25T01:08:30.152Z,5.70
2022-09-25T01:11:01.703Z,3.90
2022-09-25T01:13:33.710Z,3.80
2022-09-25T01:16:09.170Z,4.93
2022-09-25T01:18:51.278Z,6.27
2022-09-25T01:21:38.963Z,3.77
2022-09-25T01:24:20.038Z,6.17
2022-09-25T01:27:13.705Z,3.53
2022-09-25T01:29:45.203Z,5.10
2022-09-25T01:32:22.171Z,3.47
2022-09-25T01:34:56.889Z,4.27
2022-09-25T01:37:33.003Z,4.17
2022-09-25T01:40:06.665Z,5.83
2022-09-25T01:42:44.244Z,6.43
2022-09-25T01:45:17.234Z,3.50
2022-09-25T01:47:50.602Z,6.07
2022-09-25T01:50:22.371Z,3.73
2022-09-25T01:52:56.834Z,3.60
2022-09-25T01:55:31.917Z,3.90
2022-09-25T01:58:07.953Z,4.47
2022-09-25T02:00:41.588Z,3.73
2022-09-25T02:03:15.866Z,4.17
2022-09-25T02:05:52.123Z,4.90
2022-09-25T02:08:26.006Z,3.67
2022-09-25T02:11:00.746Z,3.60
2022-09-25T02:13:35.235Z,3.70
2022-09-25T02:16:09.629Z,3.53
2022-09-25T02:18:57.619Z,5.30
2022-09-25T02:21:31.208Z,4.77
2022-09-25T02:24:06.101Z,5.00
2022-09-25T02:26:39.195Z,4.40
2022-09-25T02:29:09.430Z,5.10
2022-09-25T02:31:40.422Z,3.40
2022-09-25T02:34:14.966Z,3.23
2022-09-25T02:36:47.474Z,3.73
2022-09-25T02:39:19.533Z,3.30
2022-09-25T02:41:58.468Z,4.67
2022-09-25T02:44:36.371Z,3.63
2022-09-25T02:47:18.486Z,3.47
2022-09-25T02:49:52.943Z,3.97
2022-09-25T02:52:28.303Z,4.00
2022-09-25T02:55:02.546Z,2.60
2022-09-25T02:57:38.903Z,4.50
2022-09-25T03:00:08.947Z,4.30
2022-09-25T03:02:42.906Z,4.20
2022-09-25T03:05:16.301Z,4.80
2022-09-25T03:08:05.730Z,4.80
2022-09-25T03:10:36.966Z,4.23
2022-09-25T03:13:16.892Z,4.70
2022-09-25T03:15:50.785Z,3.60
2022-09-25T03:18:22.597Z,3.53
2022-09-25T03:20:54.558Z,4.03
2022-09-25T03:23:24.937Z,6.33
2022-09-25T03:25:56.766Z,3.97
2022-09-25T03:28:27.237Z,4.40
2022-09-25T03:31:01.311Z,5.23
2022-09-25T03:33:31.921Z,6.00
2022-09-25T03:36:10.783Z,3.87
2022-09-25T03:38:41.915Z,5.43
2022-09-25T03:41:12.602Z,6.03
2022-09-25T03:43:43.475Z,5.13
2022-09-25T03:46:14.589Z,3.47
2022-09-25T03:48:44.240Z,4.30
2022-09-25T03:51:12.540Z,4.13
2022-09-25T03:53:44.313Z,6.10
2022-09-25T03:56:19.995Z,4.27
2022-09-25T03:58:54.547Z,3.70
2022-09-25T04:01:23.210Z,4.70
2022-09-25T04:04:01.049Z,5.53
2022-09-25T04:06:29.265Z,3.10
2022-09-25T04:08:57.459Z,4.07
2022-09-25T04:11:31.863Z,3.63
2022-09-25T04:14:00.087Z,4.40
2022-09-25T04:16:32.315Z,3.63
2022-09-25T04:19:03.697Z,3.87
2022-09-25T04:21:39.253Z,3.00
2022-09-25T04:24:25.455Z,4.10
2022-09-25T04:26:56.723Z,3.77
2022-09-25T04:29:28.294Z,2.97
2022-09-25T04:32:20.343Z,4.10
2022-09-25T04:34:51.968Z,3.10
2022-09-25T04:37:26.244Z,3.43
2022-09-25T04:39:58.984Z,3.50
2022-09-25T04:42:29.290Z,3.73
2022-09-25T04:45:04.110Z,3.17
2022-09-25T04:47:37.458Z,3.57
2022-09-25T04:50:07.422Z,5.40
2022-09-25T04:52:40.891Z,4.00
2022-09-25T04:55:09.426Z,3.40
2022-09-25T04:57:57.768Z,3.60
2022-09-25T05:00:29.756Z,3.00
2022-09-25T05:03:02.016Z,2.63
2022-09-25T05:05:37.170Z,2.67
2022-09-25T05:08:07.925Z,3.10
2022-09-25T05:10:42.005Z,2.80
2022-09-25T05:13:12.303Z,3.00
2022-09-25T05:15:45.847Z,2.93
2022-09-25T05:18:18.597Z,2.87
2022-09-25T05:20:50.217Z,3.30
2022-09-25T05:23:18.634Z,2.87
2022-09-25T05:25:58.077Z,3.20
2022-09-25T05:28:30.221Z,3.73
2022-09-25T05:31:02.706Z,3.23
2022-09-25T05:33:31.220Z,3.77
2022-09-25T05:36:08.972Z,3.40
2022-09-25T05:38:37.875Z,2.73
2022-09-25T05:41:13.822Z,3.90
2022-09-25T05:43:47.519Z,4.73
2022-09-25T05:46:16.568Z,3.40
2022-09-25T05:48:50.578Z,3.57
2022-09-25T05:51:24.011Z,3.23
2022-09-25T05:53:56.083Z,3.63
2022-09-25T05:56:26.335Z,3.80
2022-09-25T05:58:55.100Z,3.93
2022-09-25T06:01:28.576Z,3.47
2022-09-25T06:04:00.742Z,3.40
2022-09-25T06:06:38.620Z,3.93
2022-09-25T06:09:06.964Z,3.90
2022-09-25T06:11:35.161Z,2.60
2022-09-25T06:14:06.661Z,3.03
2022-09-25T06:16:40.284Z,2.70
2022-09-25T06:19:08.525Z,3.50
2022-09-25T06:21:41.347Z,2.97
2022-09-25T06:24:15.846Z,2.57
2022-09-25T06:26:49.333Z,4.20
2022-09-25T06:29:23.293Z,2.93
2022-09-25T06:31:55.250Z,2.60
2022-09-25T06:34:25.357Z,2.80
2022-09-25T06:36:54.902Z,4.43
2022-09-25T06:39:26.400Z,2.47
2022-09-25T06:41:58.538Z,4.57
2022-09-25T06:44:28.227Z,2.80
2022-09-25T06:46:56.463Z,3.23
2022-09-25T06:49:29.920Z,3.57
2022-09-25T06:52:02.722Z,2.63
2022-09-25T06:54:33.854Z,2.93
2022-09-25T06:57:04.185Z,2.40
2022-09-25T06:59:36.294Z,2.50
2022-09-25T07:02:25.232Z,3.53
2022-09-25T07:04:54.617Z,4.13
2022-09-25T07:07:26.193Z,2.90
2022-09-25T07:09:54.414Z,3.27
2022-09-25T07:12:22.705Z,3.30
2022-09-25T07:14:50.890Z,3.80
2022-09-25T07:17:19.119Z,2.60
2022-09-25T07:19:48.446Z,2.37
2022-09-25T07:22:16.685Z,3.77
2022-09-25T07:24:46.236Z,3.30
2022-09-25T07:27:14.475Z,3.10
2022-09-25T07:29:42.689Z,3.07
2022-09-25T07:32:11.467Z,3.80
2022-09-25T07:34:39.686Z,3.43
2022-09-25T07:37:09.999Z,3.57
2022-09-25T07:39:40.159Z,3.40
2022-09-25T07:42:11.903Z,6.70
2022-09-25T07:44:46.092Z,5.80
2022-09-25T07:47:19.515Z,2.70
2022-09-25T07:49:50.177Z,4.17
2022-09-25T07:52:20.470Z,3.23
2022-09-25T07:54:48.684Z,2.57
2022-09-25T07:57:21.185Z,3.87
2022-09-25T07:59:51.586Z,2.90
2022-09-25T08:02:22.107Z,2.27
2022-09-25T08:04:50.380Z,3.83
2022-09-25T08:07:18.594Z,2.77
2022-09-25T08:09:46.820Z,3.17
2022-09-25T08:12:17.078Z,2.97
2022-09-25T08:14:46.625Z,3.17
2022-09-25T08:17:14.867Z,2.60
2022-09-25T08:19:43.099Z,3.80
2022-09-25T08:22:11.349Z,3.00
2022-09-25T08:24:39.576Z,2.87
2022-09-25T08:27:09.802Z,3.17
2022-09-25T08:29:38.345Z,2.80
2022-09-25T08:32:10.067Z,2.70
2022-09-25T08:34:42.569Z,2.90
2022-09-25T08:37:11.123Z,4.00
2022-09-25T08:39:39.360Z,3.33
2022-09-25T08:42:07.585Z,3.37
2022-09-25T08:44:38.102Z,4.33
2022-09-25T08:47:29.047Z,3.33
2022-09-25T08:50:04.771Z,3.53
2022-09-25T08:52:33.315Z,3.00
2022-09-25T08:55:01.553Z,3.00
2022-09-25T08:57:34.857Z,3.63
2022-09-25T09:00:04.345Z,2.87
2022-09-25T09:02:39.463Z,4.53
2022-09-25T09:05:09.755Z,3.43
2022-09-25T09:07:39.735Z,2.67
2022-09-25T09:10:09.554Z,3.10
2022-09-25T09:12:39.839Z,2.90
2022-09-25T09:15:16.855Z,3.23
2022-09-25T09:17:46.427Z,3.23
2022-09-25T09:20:17.414Z,3.27
2022-09-25T09:22:48.001Z,3.33
2022-09-25T09:25:20.827Z,3.73
2022-09-25T09:27:55.327Z,2.92
2022-09-25T09:30:24.881Z,4.60
2022-09-25T09:33:07.968Z,3.10
2022-09-25T09:35:41.038Z,2.67
2022-09-25T09:38:15.969Z,3.17
2022-09-25T09:40:51.837Z,3.77
2022-09-25T09:43:25.392Z,4.10
2022-09-25T09:45:56.807Z,3.27
2022-09-25T09:48:29.968Z,2.53
2022-09-25T09:51:02.549Z,3.57
2022-09-25T09:53:32.725Z,2.40
2022-09-25T09:56:05.059Z,4.20
2022-09-25T09:58:39.939Z,3.57
2022-09-25T10:01:29.051Z,2.83
2022-09-25T10:04:00.455Z,2.70
2022-09-25T10:06:31.542Z,2.43
2022-09-25T10:08:59.764Z,3.10
2022-09-25T10:11:28.604Z,2.83
2022-09-25T10:13:59.894Z,3.10
2022-09-25T10:16:28.386Z,3.03
2022-09-25T10:19:04.089Z,2.30
2022-09-25T10:21:35.039Z,3.30
2022-09-25T10:24:03.537Z,3.00
2022-09-25T10:26:33.106Z,2.37
2022-09-25T10:29:02.363Z,3.30
2022-09-25T10:31:31.569Z,2.57
2022-09-25T10:34:03.960Z,3.20
2022-09-25T10:36:41.912Z,3.00
2022-09-25T10:39:43.556Z,3.73
2022-09-25T10:42:27.584Z,2.97
2022-09-25T10:44:58.269Z,2.73
2022-09-25T10:47:53.083Z,3.67
2022-09-25T10:50:22.716Z,3.57
2022-09-25T10:52:53.700Z,3.93
2022-09-25T10:55:28.379Z,3.33
2022-09-25T10:58:02.717Z,3.80
2022-09-25T11:00:31.129Z,3.63
2022-09-25T11:03:00.383Z,3.73
2022-09-25T11:05:32.911Z,4.00
2022-09-25T11:08:09.204Z,3.40
2022-09-25T11:10:47.444Z,3.70
2022-09-25T11:13:22.314Z,3.40
2022-09-25T11:15:53.283Z,2.80
2022-09-25T11:18:35.267Z,4.30
2022-09-25T11:21:06.383Z,3.43
2022-09-25T11:23:37.923Z,2.73
2022-09-25T11:26:08.516Z,3.10
2022-09-25T11:28:39.121Z,3.30
2022-09-25T11:31:13.156Z,3.20
2022-09-25T11:33:47.021Z,2.63
2022-09-25T11:36:18.160Z,3.20
2022-09-25T11:39:06.941Z,4.00
2022-09-25T11:41:41.932Z,3.10
2022-09-25T11:44:18.050Z,3.57
2022-09-25T11:46:50.280Z,3.13
2022-09-25T11:49:24.269Z,2.80
2022-09-25T11:52:05.919Z,3.90
2022-09-25T11:54:40.185Z,3.60
2022-09-25T11:57:12.065Z,4.00
2022-09-25T11:59:46.516Z,3.57
2022-09-25T12:02:21.324Z,3.90
2022-09-25T12:05:02.187Z,3.63
2022-09-25T12:07:43.935Z,4.27
2022-09-25T12:10:27.188Z,4.30
2022-09-25T12:13:02.382Z,2.80
2022-09-25T12:15:38.508Z,3.60
2022-09-25T12:18:12.513Z,3.60
2022-09-25T12:20:45.315Z,4.00
2022-09-25T12:23:19.830Z,3.70
2022-09-25T12:25:59.734Z,2.80
2022-09-25T12:28:31.429Z,3.93
2022-09-25T12:31:06.053Z,5.20
2022-09-25T12:33:36.311Z,6.80
2022-09-25T12:36:09.075Z,6.70
2022-09-25T12:38:44.179Z,7.37
2022-09-25T12:41:18.623Z,4.73
2022-09-25T12:43:49.585Z,5.60
2022-09-25T12:46:21.417Z,5.70
2022-09-25T12:48:52.857Z,6.27
2022-09-25T12:51:23.468Z,5.70
2022-09-25T12:53:56.252Z,5.90
2022-09-25T12:56:28.022Z,6.00
2022-09-25T12:59:01.055Z,6.50
2022-09-25T13:01:31.799Z,6.40
2022-09-25T13:04:06.288Z,5.57
2022-09-25T13:06:43.423Z,6.80
2022-09-25T13:09:19.155Z,6.53
2022-09-25T13:11:51.737Z,5.27
2022-09-25T13:14:24.260Z,6.67
2022-09-25T13:16:52.533Z,6.83
2022-09-25T13:19:26.262Z,5.57
2022-09-25T13:22:00.175Z,6.33
2022-09-25T13:24:30.819Z,4.47
2022-09-25T13:27:04.896Z,4.30
2022-09-25T13:29:36.413Z,6.00
2022-09-25T13:32:06.541Z,5.63
2022-09-25T13:34:36.157Z,5.70
2022-09-25T13:37:05.815Z,5.10
2022-09-25T13:39:52.931Z,4.80
2022-09-25T13:42:25.402Z,5.30
2022-09-25T13:45:06.220Z,4.80
2022-09-25T13:47:40.937Z,5.13
2022-09-25T13:50:19.862Z,5.37
2022-09-25T13:53:16.503Z,4.90
2022-09-25T13:55:45.398Z,5.17
2022-09-25T13:58:21.316Z,6.53
2022-09-25T14:00:57.290Z,4.67
2022-09-25T14:03:33.455Z,5.13
2022-09-25T14:06:02.797Z,4.90
2022-09-25T14:08:32.303Z,5.40
2022-09-25T14:11:04.323Z,5.47
2022-09-25T14:13:35.311Z,5.43
2022-09-25T14:16:05.201Z,5.17
2022-09-25T14:18:36.337Z,4.93
2022-09-25T14:21:06.315Z,3.70
2022-09-25T14:23:34.558Z,5.40
2022-09-25T14:26:05.943Z,5.53
2022-09-25T14:28:37.124Z,5.20
2022-09-25T14:31:14.366Z,6.33
2022-09-25T14:33:58.713Z,5.80
2022-09-25T14:36:34.923Z,6.70
2022-09-25T14:39:21.058Z,6.20
2022-09-25T14:42:04.377Z,6.27
2022-09-25T14:44:53.240Z,6.53
2022-09-25T14:47:23.671Z,7.10
2022-09-25T14:49:52.947Z,6.67
2022-09-25T14:52:24.015Z,5.83
2022-09-25T14:54:55.137Z,7.20
2022-09-25T14:57:26.890Z,8.53
2022-09-25T14:59:56.089Z,7.23
2022-09-25T15:02:32.427Z,6.20
2022-09-25T15:05:01.134Z,6.27
2022-09-25T15:07:29.338Z,6.90
2022-09-25T15:09:59.143Z,5.77
2022-09-25T15:12:29.246Z,6.13
2022-09-25T15:15:01.217Z,8.00
2022-09-25T15:17:31.163Z,6.67
2022-09-25T15:20:00.387Z,7.77
2022-09-25T15:22:31.794Z,7.10
2022-09-25T15:25:01.077Z,7.50
2022-09-25T15:27:29.980Z,8.63
2022-09-25T15:30:00.106Z,8.43
2022-09-25T15:32:29.523Z,6.57
2022-09-25T15:35:09.572Z,7.07
2022-09-25T15:37:39.324Z,6.43
2022-09-25T15:40:16.234Z,6.80
2022-09-25T15:42:46.077Z,7.10
2022-09-25T15:45:29.861Z,6.80
2022-09-25T15:47:58.107Z,7.00
2022-09-25T15:50:28.561Z,5.00
2022-09-25T15:52:59.266Z,6.60
2022-09-25T15:55:27.727Z,6.73
2022-09-25T15:57:57.626Z,6.00
2022-09-25T16:00:45.253Z,5.20
2022-09-25T16:03:46.640Z,7.47
2022-09-25T16:06:17.216Z,5.30
2022-09-25T16:08:45.448Z,5.70
2022-09-25T16:11:19.795Z,5.33
2022-09-25T16:13:49.203Z,7.23
2022-09-25T16:16:22.289Z,5.30
2022-09-25T16:18:51.212Z,5.97
2022-09-25T16:21:26.030Z,6.37
2022-09-25T16:23:56.488Z,5.00
2022-09-25T16:26:26.066Z,4.37
2022-09-25T16:28:58.891Z,6.40
2022-09-25T16:31:27.376Z,4.70
2022-09-25T16:33:57.303Z,5.70
2022-09-25T16:36:27.632Z,7.03
2022-09-25T16:39:06.512Z,7.03
2022-09-25T16:41:35.892Z,5.30
2022-09-25T16:44:14.108Z,6.20
2022-09-25T16:46:42.887Z,5.30
2022-09-25T16:49:12.210Z,4.33
2022-09-25T16:51:45.798Z,5.90
2022-09-25T16:54:15.555Z,5.63
2022-09-25T16:56:44.514Z,5.50
2022-09-25T16:59:17.269Z,5.60
2022-09-25T17:01:46.207Z,4.40
2022-09-25T17:04:15.608Z,5.57
2022-09-25T17:06:47.459Z,6.83
2022-09-25T17:09:16.418Z,5.40
2022-09-25T17:11:45.600Z,4.70
2022-09-25T17:14:18.216Z,6.33
2022-09-25T17:16:46.457Z,4.93
2022-09-25T17:19:18.002Z,4.50
2022-09-25T17:21:51.345Z,5.17
2022-09-25T17:24:20.448Z,5.87
2022-09-25T17:26:48.825Z,5.23
2022-09-25T17:29:17.031Z,4.50
2022-09-25T17:31:45.373Z,3.23
2022-09-25T17:34:17.785Z,5.10
2022-09-25T17:36:46.110Z,3.83
2022-09-25T17:39:15.688Z,3.20
2022-09-25T17:41:44.261Z,4.80
2022-09-25T17:44:14.016Z,4.67
2022-09-25T17:46:42.342Z,4.37
2022-09-25T17:49:11.437Z,3.50
2022-09-25T17:51:39.879Z,4.53
2022-09-25T17:54:08.367Z,3.97
2022-09-25T17:56:39.728Z,4.40
2022-09-25T17:59:09.068Z,4.63
2022-09-25T18:01:39.713Z,4.23
2022-09-25T18:04:15.647Z,4.30
2022-09-25T18:06:44.172Z,4.10
2022-09-25T18:09:12.563Z,4.80
2022-09-25T18:11:44.058Z,3.90
2022-09-25T18:14:12.857Z,3.23
2022-09-25T18:16:42.100Z,3.80
2022-09-25T18:19:33.114Z,3.50
2022-09-25T18:22:18.291Z,4.10
2022-09-25T18:24:46.774Z,3.80
2022-09-25T18:27:16.932Z,5.00
2022-09-25T18:29:46.197Z,4.87
2022-09-25T18:32:14.565Z,7.30
2022-09-25T18:34:42.800Z,5.40
2022-09-25T18:37:11.213Z,5.17
2022-09-25T18:39:39.644Z,4.53
2022-09-25T18:42:07.901Z,5.77
2022-09-25T18:44:42.738Z,7.20
2022-09-25T18:47:11.572Z,4.93
2022-09-25T18:49:39.793Z,5.13
2022-09-25T18:52:08.168Z,6.00
2022-09-25T18:54:36.446Z,4.50
2022-09-25T18:57:04.869Z,7.57
2022-09-25T18:59:33.096Z,6.60
2022-09-25T19:02:03.511Z,5.60
2022-09-25T19:04:31.832Z,5.17
2022-09-25T19:07:00.072Z,5.20
2022-09-25T19:09:28.531Z,5.87
2022-09-25T19:11:56.763Z,5.00
2022-09-25T19:14:25.234Z,5.20
2022-09-25T19:16:53.486Z,5.63
2022-09-25T19:19:23.040Z,5.20
2022-09-25T19:21:51.283Z,7.20
2022-09-25T19:24:19.495Z,6.10
2022-09-25T19:26:48.027Z,4.33
2022-09-25T19:29:16.299Z,7.30
2022-09-25T19:31:45.065Z,5.53
2022-09-25T19:34:13.313Z,4.93
2022-09-25T19:36:42.903Z,5.70
2022-09-25T19:39:11.230Z,6.00
2022-09-25T19:41:41.008Z,7.30
2022-09-25T19:44:13.617Z,4.37
2022-09-25T19:46:42.666Z,4.97
2022-09-25T19:49:11.266Z,4.53
2022-09-25T19:51:39.859Z,5.27
2022-09-25T19:54:10.333Z,5.93
2022-09-25T19:56:40.830Z,4.80
2022-09-25T19:59:09.567Z,5.00
2022-09-25T20:01:38.332Z,4.60
2022-09-25T20:04:08.533Z,4.53
2022-09-25T20:06:37.952Z,4.50
2022-09-25T20:09:06.651Z,4.73
2022-09-25T20:11:36.826Z,4.07
2022-09-25T20:14:06.014Z,5.43
2022-09-25T20:16:34.422Z,5.27
2022-09-25T20:19:03.844Z,4.70
2022-09-25T20:21:33.605Z,5.43
2022-09-25T20:24:02.796Z,6.77
2022-09-25T20:26:31.665Z,5.10
2022-09-25T20:29:02.063Z,4.33
2022-09-25T20:31:32.531Z,5.10
2022-09-25T20:34:01.683Z,6.67
2022-09-25T20:36:30.186Z,6.87
2022-09-25T20:38:58.727Z,6.20
2022-09-25T20:41:27.940Z,6.23
2022-09-25T20:43:57.100Z,6.73
2022-09-25T20:46:27.060Z,5.87
2022-09-25T20:48:57.931Z,6.03
2022-09-25T20:51:28.067Z,4.97
2022-09-25T20:53:57.465Z,7.40
2022-09-25T20:56:26.170Z,6.10
2022-09-25T20:58:56.754Z,6.60
2022-09-25T21:01:26.128Z,5.50
2022-09-25T21:03:56.071Z,5.43
2022-09-25T21:06:25.281Z,7.07
2022-09-25T21:08:54.053Z,5.77
2022-09-25T21:11:22.536Z,6.00
2022-09-25T21:13:52.193Z,4.57
2022-09-25T21:16:21.003Z,5.10
2022-09-25T21:18:52.886Z,5.80
2022-09-25T21:21:23.007Z,6.37
2022-09-25T21:23:51.765Z,5.60
2022-09-25T21:26:20.349Z,5.47
2022-09-25T21:28:50.363Z,3.97
2022-09-25T21:31:19.932Z,3.87
2022-09-25T21:33:48.373Z,6.13
2022-09-25T21:36:17.689Z,6.20
2022-09-25T21:38:47.531Z,4.40
2022-09-25T21:41:17.999Z,5.30
2022-09-25T21:43:46.618Z,6.10
2022-09-25T21:46:16.021Z,5.50
2022-09-25T21:48:48.388Z,6.67
2022-09-25T21:51:17.009Z,4.60
2022-09-25T21:53:46.847Z,4.67
2022-09-25T21:56:17.066Z,5.40
2022-09-25T21:58:45.754Z,5.03
2022-09-25T22:01:15.080Z,5.77
2022-09-25T22:03:44.206Z,4.57
2022-09-25T22:06:14.094Z,5.63
2022-09-25T22:08:43.420Z,5.73
2022-09-25T22:11:13.601Z,5.13
2022-09-25T22:13:42.610Z,6.30
2022-09-25T22:16:12.017Z,5.07
2022-09-25T22:18:43.964Z,4.90
2022-09-25T22:21:12.519Z,5.60
2022-09-25T22:23:40.819Z,5.63
2022-09-25T22:26:09.530Z,5.17
2022-09-25T22:28:39.130Z,4.53
2022-09-25T22:31:07.890Z,4.43
2022-09-25T22:33:36.499Z,4.47
2022-09-25T22:36:05.562Z,4.40
2022-09-25T22:38:34.258Z,5.00
2022-09-25T22:41:04.489Z,4.00
2022-09-25T22:43:32.972Z,5.03
2022-09-25T22:46:02.619Z,3.90
2022-09-25T22:48:31.181Z,5.47
2022-09-25T22:51:00.306Z,4.60
2022-09-25T22:53:29.826Z,3.67
2022-09-25T22:55:58.092Z,3.27
2022-09-25T22:58:26.358Z,4.27
2022-09-25T23:00:54.643Z,4.27
2022-09-25T23:03:24.834Z,5.30
2022-09-25T23:05:53.153Z,4.47
2022-09-25T23:08:21.506Z,4.40
2022-09-25T23:11:06.574Z,4.80
2022-09-25T23:13:36.414Z,4.50
2022-09-25T23:16:08.786Z,4.30
2022-09-25T23:18:38.738Z,5.40
2022-09-25T23:21:07.095Z,4.17
2022-09-25T23:23:35.319Z,4.30
2022-09-25T23:26:06.085Z,3.90
2022-09-25T23:28:35.019Z,3.07
2022-09-25T23:31:10.320Z,3.97
2022-09-25T23:33:40.431Z,4.10
2022-09-25T23:36:09.692Z,4.43
2022-09-25T23:38:37.913Z,4.20
2022-09-25T23:41:14.713Z,4.60
2022-09-25T23:43:42.907Z,3.90
2022-09-25T23:46:11.185Z,4.03
2022-09-25T23:48:40.825Z,3.83
2022-09-25T23:51:09.536Z,4.10
2022-09-25T23:53:38.081Z,3.40
2022-09-25T23:56:06.981Z,3.43
2022-09-25T23:58:35.330Z,3.90
